sensor_id;sensor_type;location;lat;lon;timestamp;temperature;humidity
22416;DHT22;12204;50.600;4.608;2023-06-05T00:00:53;26.20;51.70
22416;DHT22;12204;50.600;4.608;2023-06-05T00:05:57;26.10;51.70
22416;DHT22;12204;50.600;4.608;2023-06-05T00:11:00;26.10;51.90
22416;DHT22;12204;50.600;4.608;2023-06-05T00:16:05;26.10;52.00
22416;DHT22;12204;50.600;4.608;2023-06-05T00:21:09;26.10;52.10
22416;DHT22;12204;50.600;4.608;2023-06-05T00:26:13;26.10;52.20
22416;DHT22;12204;50.600;4.608;2023-06-05T00:31:18;26.10;52.30
22416;DHT22;12204;50.600;4.608;2023-06-05T00:36:23;26.10;52.30
22416;DHT22;12204;50.600;4.608;2023-06-05T00:41:26;26.10;52.40
22416;DHT22;12204;50.600;4.608;2023-06-05T00:46:31;26.10;52.60
22416;DHT22;12204;50.600;4.608;2023-06-05T00:51:36;26.10;52.80
22416;DHT22;12204;50.600;4.608;2023-06-05T00:56:40;26.10;52.80
22416;DHT22;12204;50.600;4.608;2023-06-05T01:01:46;26.10;52.90
22416;DHT22;12204;50.600;4.608;2023-06-05T01:06:50;26.10;53.00
22416;DHT22;12204;50.600;4.608;2023-06-05T01:12:00;26.10;52.90
22416;DHT22;12204;50.600;4.608;2023-06-05T01:17:08;26.10;52.70
22416;DHT22;12204;50.600;4.608;2023-06-05T01:22:12;26.10;52.80
22416;DHT22;12204;50.600;4.608;2023-06-05T01:27:25;26.10;52.80
22416;DHT22;12204;50.600;4.608;2023-06-05T01:32:39;26.10;53.10
22416;DHT22;12204;50.600;4.608;2023-06-05T01:37:47;26.10;53.60
22416;DHT22;12204;50.600;4.608;2023-06-05T01:42:54;26.10;53.30
22416;DHT22;12204;50.600;4.608;2023-06-05T01:47:59;26.00;53.60
22416;DHT22;12204;50.600;4.608;2023-06-05T01:53:04;26.00;53.70
22416;DHT22;12204;50.600;4.608;2023-06-05T01:58:10;26.00;53.70
22416;DHT22;12204;50.600;4.608;2023-06-05T02:03:14;26.10;53.20
22416;DHT22;12204;50.600;4.608;2023-06-05T02:08:20;26.00;53.20
22416;DHT22;12204;50.600;4.608;2023-06-05T02:13:26;26.00;53.20
22416;DHT22;12204;50.600;4.608;2023-06-05T02:18:29;26.00;53.00
22416;DHT22;12204;50.600;4.608;2023-06-05T02:23:34;26.00;53.00
22416;DHT22;12204;50.600;4.608;2023-06-05T02:28:39;26.00;53.40
22416;DHT22;12204;50.600;4.608;2023-06-05T02:33:43;26.00;53.20
22416;DHT22;12204;50.600;4.608;2023-06-05T02:38:46;26.00;53.30
22416;DHT22;12204;50.600;4.608;2023-06-05T02:43:52;26.00;53.40
22416;DHT22;12204;50.600;4.608;2023-06-05T02:48:56;26.00;53.50
22416;DHT22;12204;50.600;4.608;2023-06-05T02:54:01;26.00;53.30
22416;DHT22;12204;50.600;4.608;2023-06-05T02:59:07;26.00;53.20
22416;DHT22;12204;50.600;4.608;2023-06-05T03:04:12;26.00;53.30
22416;DHT22;12204;50.600;4.608;2023-06-05T03:09:16;26.00;53.10
22416;DHT22;12204;50.600;4.608;2023-06-05T03:14:22;26.00;53.10
22416;DHT22;12204;50.600;4.608;2023-06-05T03:19:26;26.00;53.20
22416;DHT22;12204;50.600;4.608;2023-06-05T03:24:33;26.00;53.10
22416;DHT22;12204;50.600;4.608;2023-06-05T03:29:43;26.00;53.10
22416;DHT22;12204;50.600;4.608;2023-06-05T03:34:47;25.90;53.00
22416;DHT22;12204;50.600;4.608;2023-06-05T03:39:52;25.90;53.10
22416;DHT22;12204;50.600;4.608;2023-06-05T03:44:57;25.90;53.00
22416;DHT22;12204;50.600;4.608;2023-06-05T03:50:01;25.90;53.00
22416;DHT22;12204;50.600;4.608;2023-06-05T03:55:09;25.90;52.90
22416;DHT22;12204;50.600;4.608;2023-06-05T04:00:15;25.90;53.00
22416;DHT22;12204;50.600;4.608;2023-06-05T04:05:30;25.90;53.40
22416;DHT22;12204;50.600;4.608;2023-06-05T04:10:34;25.90;53.20
22416;DHT22;12204;50.600;4.608;2023-06-05T04:15:39;25.90;53.00
22416;DHT22;12204;50.600;4.608;2023-06-05T04:20:44;25.90;52.90
22416;DHT22;12204;50.600;4.608;2023-06-05T04:25:48;25.90;53.00
22416;DHT22;12204;50.600;4.608;2023-06-05T04:30:58;25.90;53.20
22416;DHT22;12204;50.600;4.608;2023-06-05T04:36:04;25.90;53.10
22416;DHT22;12204;50.600;4.608;2023-06-05T04:41:07;25.90;53.10
22416;DHT22;12204;50.600;4.608;2023-06-05T04:46:14;25.90;53.10
22416;DHT22;12204;50.600;4.608;2023-06-05T04:51:17;25.90;53.10
22416;DHT22;12204;50.600;4.608;2023-06-05T04:56:21;25.90;52.90
22416;DHT22;12204;50.600;4.608;2023-06-05T05:01:26;25.90;53.10
22416;DHT22;12204;50.600;4.608;2023-06-05T05:06:30;25.90;53.10
22416;DHT22;12204;50.600;4.608;2023-06-05T05:11:35;25.90;53.10
22416;DHT22;12204;50.600;4.608;2023-06-05T05:16:40;25.80;53.00
22416;DHT22;12204;50.600;4.608;2023-06-05T05:21:45;25.90;53.20
22416;DHT22;12204;50.600;4.608;2023-06-05T05:26:50;25.90;53.10
22416;DHT22;12204;50.600;4.608;2023-06-05T05:31:56;25.80;53.20
22416;DHT22;12204;50.600;4.608;2023-06-05T05:36:59;25.90;53.80
22416;DHT22;12204;50.600;4.608;2023-06-05T05:42:06;25.90;53.50
22416;DHT22;12204;50.600;4.608;2023-06-05T05:47:11;25.90;53.40
22416;DHT22;12204;50.600;4.608;2023-06-05T05:52:14;25.90;53.50
22416;DHT22;12204;50.600;4.608;2023-06-05T05:57:19;25.90;53.50
22416;DHT22;12204;50.600;4.608;2023-06-05T06:02:24;25.90;53.70
22416;DHT22;12204;50.600;4.608;2023-06-05T06:07:27;25.90;53.70
22416;DHT22;12204;50.600;4.608;2023-06-05T06:12:31;25.90;53.80
22416;DHT22;12204;50.600;4.608;2023-06-05T06:17:36;25.90;53.70
22416;DHT22;12204;50.600;4.608;2023-06-05T06:22:40;25.90;53.70
22416;DHT22;12204;50.600;4.608;2023-06-05T06:27:43;25.90;54.30
22416;DHT22;12204;50.600;4.608;2023-06-05T06:32:51;25.90;53.80
22416;DHT22;12204;50.600;4.608;2023-06-05T06:37:56;25.90;53.90
22416;DHT22;12204;50.600;4.608;2023-06-05T06:43:00;25.80;53.60
22416;DHT22;12204;50.600;4.608;2023-06-05T06:48:31;25.90;53.70
22416;DHT22;12204;50.600;4.608;2023-06-05T06:53:35;25.90;54.00
22416;DHT22;12204;50.600;4.608;2023-06-05T06:58:39;25.90;54.10
22416;DHT22;12204;50.600;4.608;2023-06-05T07:03:46;25.80;53.60
22416;DHT22;12204;50.600;4.608;2023-06-05T07:08:49;25.80;53.10
22416;DHT22;12204;50.600;4.608;2023-06-05T07:13:53;25.70;52.70
22416;DHT22;12204;50.600;4.608;2023-06-05T07:18:58;25.60;52.50
22416;DHT22;12204;50.600;4.608;2023-06-05T07:24:02;25.60;52.20
22416;DHT22;12204;50.600;4.608;2023-06-05T07:29:06;25.60;52.30
22416;DHT22;12204;50.600;4.608;2023-06-05T07:34:11;25.50;52.20
22416;DHT22;12204;50.600;4.608;2023-06-05T07:39:15;25.50;51.80
22416;DHT22;12204;50.600;4.608;2023-06-05T07:44:20;25.50;51.90
22416;DHT22;12204;50.600;4.608;2023-06-05T07:49:29;25.40;51.90
22416;DHT22;12204;50.600;4.608;2023-06-05T07:54:33;25.40;51.70
22416;DHT22;12204;50.600;4.608;2023-06-05T07:59:39;25.40;51.80
22416;DHT22;12204;50.600;4.608;2023-06-05T08:04:44;25.40;51.90
22416;DHT22;12204;50.600;4.608;2023-06-05T08:09:48;25.30;52.00
22416;DHT22;12204;50.600;4.608;2023-06-05T08:14:51;25.30;51.80
22416;DHT22;12204;50.600;4.608;2023-06-05T08:19:56;25.30;51.80
22416;DHT22;12204;50.600;4.608;2023-06-05T08:25:00;25.20;52.00
22416;DHT22;12204;50.600;4.608;2023-06-05T08:30:07;25.20;52.00
22416;DHT22;12204;50.600;4.608;2023-06-05T08:35:12;25.30;52.10
22416;DHT22;12204;50.600;4.608;2023-06-05T08:40:17;25.30;52.10
22416;DHT22;12204;50.600;4.608;2023-06-05T08:45:22;25.20;51.70
22416;DHT22;12204;50.600;4.608;2023-06-05T08:50:28;25.10;51.80
22416;DHT22;12204;50.600;4.608;2023-06-05T08:55:33;25.10;51.90
22416;DHT22;12204;50.600;4.608;2023-06-05T09:00:37;25.10;52.00
22416;DHT22;12204;50.600;4.608;2023-06-05T09:05:41;25.10;52.00
22416;DHT22;12204;50.600;4.608;2023-06-05T09:10:45;24.90;52.70
22416;DHT22;12204;50.600;4.608;2023-06-05T09:15:50;24.80;52.80
22416;DHT22;12204;50.600;4.608;2023-06-05T09:20:55;24.80;52.20
22416;DHT22;12204;50.600;4.608;2023-06-05T09:26:01;25.00;52.20
22416;DHT22;12204;50.600;4.608;2023-06-05T09:31:05;25.10;53.10
22416;DHT22;12204;50.600;4.608;2023-06-05T09:36:12;25.10;53.10
22416;DHT22;12204;50.600;4.608;2023-06-05T09:41:16;25.20;53.10
22416;DHT22;12204;50.600;4.608;2023-06-05T09:46:20;25.20;52.90
22416;DHT22;12204;50.600;4.608;2023-06-05T09:51:25;25.20;52.80
22416;DHT22;12204;50.600;4.608;2023-06-05T09:56:29;25.20;53.20
22416;DHT22;12204;50.600;4.608;2023-06-05T10:01:36;25.20;52.50
22416;DHT22;12204;50.600;4.608;2023-06-05T10:06:42;25.20;52.40
22416;DHT22;12204;50.600;4.608;2023-06-05T10:11:48;25.20;52.50
22416;DHT22;12204;50.600;4.608;2023-06-05T10:16:52;25.30;52.80
22416;DHT22;12204;50.600;4.608;2023-06-05T10:21:57;25.30;52.80
22416;DHT22;12204;50.600;4.608;2023-06-05T10:27:22;25.30;52.50
22416;DHT22;12204;50.600;4.608;2023-06-05T10:32:52;25.20;52.10
22416;DHT22;12204;50.600;4.608;2023-06-05T10:38:16;25.30;52.50
22416;DHT22;12204;50.600;4.608;2023-06-05T10:43:30;25.30;52.60
22416;DHT22;12204;50.600;4.608;2023-06-05T10:49:06;25.30;52.40
22416;DHT22;12204;50.600;4.608;2023-06-05T10:54:13;25.30;52.40
22416;DHT22;12204;50.600;4.608;2023-06-05T10:59:19;25.30;52.30
22416;DHT22;12204;50.600;4.608;2023-06-05T11:04:24;25.30;52.20
22416;DHT22;12204;50.600;4.608;2023-06-05T11:09:29;25.30;51.70
22416;DHT22;12204;50.600;4.608;2023-06-05T11:14:45;25.30;51.50
22416;DHT22;12204;50.600;4.608;2023-06-05T11:19:50;25.30;51.40
22416;DHT22;12204;50.600;4.608;2023-06-05T11:25:26;25.30;51.40
22416;DHT22;12204;50.600;4.608;2023-06-05T11:30:32;25.30;50.90
22416;DHT22;12204;50.600;4.608;2023-06-05T11:35:50;25.30;50.80
22416;DHT22;12204;50.600;4.608;2023-06-05T11:40:56;25.30;50.40
22416;DHT22;12204;50.600;4.608;2023-06-05T11:45:59;25.30;50.40
22416;DHT22;12204;50.600;4.608;2023-06-05T11:51:04;25.30;50.30
22416;DHT22;12204;50.600;4.608;2023-06-05T11:56:13;25.40;50.30
22416;DHT22;12204;50.600;4.608;2023-06-05T12:01:20;25.40;49.60
22416;DHT22;12204;50.600;4.608;2023-06-05T12:06:25;25.40;49.40
22416;DHT22;12204;50.600;4.608;2023-06-05T12:11:32;25.40;48.70
22416;DHT22;12204;50.600;4.608;2023-06-05T12:16:37;25.40;48.80
22416;DHT22;12204;50.600;4.608;2023-06-05T12:21:43;25.40;48.50
22416;DHT22;12204;50.600;4.608;2023-06-05T12:26:51;25.40;48.00
22416;DHT22;12204;50.600;4.608;2023-06-05T12:31:57;25.40;47.90
22416;DHT22;12204;50.600;4.608;2023-06-05T12:37:01;25.40;47.80
22416;DHT22;12204;50.600;4.608;2023-06-05T12:42:07;25.40;47.20
22416;DHT22;12204;50.600;4.608;2023-06-05T12:47:11;25.40;47.30
22416;DHT22;12204;50.600;4.608;2023-06-05T12:52:15;25.50;47.50
22416;DHT22;12204;50.600;4.608;2023-06-05T12:57:20;25.50;47.70
22416;DHT22;12204;50.600;4.608;2023-06-05T13:02:26;25.40;47.10
22416;DHT22;12204;50.600;4.608;2023-06-05T13:07:31;25.50;47.80
22416;DHT22;12204;50.600;4.608;2023-06-05T13:12:36;25.50;47.50
22416;DHT22;12204;50.600;4.608;2023-06-05T13:17:40;25.50;48.00
22416;DHT22;12204;50.600;4.608;2023-06-05T13:22:45;25.50;47.40
22416;DHT22;12204;50.600;4.608;2023-06-05T13:27:50;25.50;48.70
22416;DHT22;12204;50.600;4.608;2023-06-05T13:32:53;25.50;46.60
22416;DHT22;12204;50.600;4.608;2023-06-05T13:37:57;25.50;46.30
22416;DHT22;12204;50.600;4.608;2023-06-05T13:43:02;25.60;46.10
22416;DHT22;12204;50.600;4.608;2023-06-05T13:48:05;25.60;45.70
22416;DHT22;12204;50.600;4.608;2023-06-05T13:53:09;25.60;45.40
22416;DHT22;12204;50.600;4.608;2023-06-05T13:58:14;25.60;45.20
22416;DHT22;12204;50.600;4.608;2023-06-05T14:03:17;25.60;45.40
22416;DHT22;12204;50.600;4.608;2023-06-05T14:08:21;25.60;45.30
22416;DHT22;12204;50.600;4.608;2023-06-05T14:13:26;25.60;44.90
22416;DHT22;12204;50.600;4.608;2023-06-05T14:18:30;25.70;45.30
22416;DHT22;12204;50.600;4.608;2023-06-05T14:23:33;25.70;44.90
22416;DHT22;12204;50.600;4.608;2023-06-05T14:28:38;25.80;45.60
22416;DHT22;12204;50.600;4.608;2023-06-05T14:33:42;25.80;45.40
22416;DHT22;12204;50.600;4.608;2023-06-05T14:38:46;25.80;44.90
22416;DHT22;12204;50.600;4.608;2023-06-05T14:43:50;25.90;45.60
22416;DHT22;12204;50.600;4.608;2023-06-05T14:48:54;25.90;45.20
22416;DHT22;12204;50.600;4.608;2023-06-05T14:53:57;25.90;45.50
22416;DHT22;12204;50.600;4.608;2023-06-05T14:59:02;25.90;45.20
22416;DHT22;12204;50.600;4.608;2023-06-05T15:04:26;26.00;45.30
22416;DHT22;12204;50.600;4.608;2023-06-05T15:09:30;26.00;45.70
22416;DHT22;12204;50.600;4.608;2023-06-05T15:14:35;26.10;44.90
22416;DHT22;12204;50.600;4.608;2023-06-05T15:19:39;26.10;45.00
22416;DHT22;12204;50.600;4.608;2023-06-05T15:24:47;26.10;45.20
22416;DHT22;12204;50.600;4.608;2023-06-05T15:29:55;26.20;44.80
22416;DHT22;12204;50.600;4.608;2023-06-05T15:35:01;26.20;45.00
22416;DHT22;12204;50.600;4.608;2023-06-05T15:40:06;26.20;45.80
22416;DHT22;12204;50.600;4.608;2023-06-05T15:45:14;26.30;44.90
22416;DHT22;12204;50.600;4.608;2023-06-05T15:50:18;26.30;44.60
22416;DHT22;12204;50.600;4.608;2023-06-05T15:55:22;26.30;44.00
22416;DHT22;12204;50.600;4.608;2023-06-05T16:00:27;26.40;44.30
22416;DHT22;12204;50.600;4.608;2023-06-05T16:05:31;26.40;44.10
22416;DHT22;12204;50.600;4.608;2023-06-05T16:10:34;26.50;44.50
22416;DHT22;12204;50.600;4.608;2023-06-05T16:15:39;26.50;44.70
22416;DHT22;12204;50.600;4.608;2023-06-05T16:20:43;26.50;44.10
22416;DHT22;12204;50.600;4.608;2023-06-05T16:25:47;26.60;43.90
22416;DHT22;12204;50.600;4.608;2023-06-05T16:30:52;26.60;43.70
22416;DHT22;12204;50.600;4.608;2023-06-05T16:35:55;26.60;43.70
22416;DHT22;12204;50.600;4.608;2023-06-05T16:41:00;26.70;44.10
22416;DHT22;12204;50.600;4.608;2023-06-05T16:46:05;26.70;44.10
22416;DHT22;12204;50.600;4.608;2023-06-05T16:51:09;26.70;43.80
22416;DHT22;12204;50.600;4.608;2023-06-05T16:56:13;26.80;43.60
22416;DHT22;12204;50.600;4.608;2023-06-05T17:01:20;26.80;43.60
22416;DHT22;12204;50.600;4.608;2023-06-05T17:06:24;26.80;43.70
22416;DHT22;12204;50.600;4.608;2023-06-05T17:11:29;26.80;43.90
22416;DHT22;12204;50.600;4.608;2023-06-05T17:16:35;26.80;44.10
22416;DHT22;12204;50.600;4.608;2023-06-05T17:21:39;26.90;44.10
22416;DHT22;12204;50.600;4.608;2023-06-05T17:26:43;26.90;43.80
22416;DHT22;12204;50.600;4.608;2023-06-05T17:31:50;26.90;43.40
22416;DHT22;12204;50.600;4.608;2023-06-05T17:36:55;26.90;43.30
22416;DHT22;12204;50.600;4.608;2023-06-05T17:42:01;26.90;43.50
22416;DHT22;12204;50.600;4.608;2023-06-05T17:47:07;26.90;43.30
22416;DHT22;12204;50.600;4.608;2023-06-05T17:52:11;26.90;43.60
22416;DHT22;12204;50.600;4.608;2023-06-05T17:57:14;26.90;43.70
22416;DHT22;12204;50.600;4.608;2023-06-05T18:02:20;26.90;43.90
22416;DHT22;12204;50.600;4.608;2023-06-05T18:07:24;26.90;43.70
22416;DHT22;12204;50.600;4.608;2023-06-05T18:12:28;26.90;44.00
22416;DHT22;12204;50.600;4.608;2023-06-05T18:17:33;26.90;44.20
22416;DHT22;12204;50.600;4.608;2023-06-05T18:22:36;26.90;44.20
22416;DHT22;12204;50.600;4.608;2023-06-05T18:27:41;26.90;44.60
22416;DHT22;12204;50.600;4.608;2023-06-05T18:32:46;26.90;44.60
22416;DHT22;12204;50.600;4.608;2023-06-05T18:37:50;26.90;44.80
22416;DHT22;12204;50.600;4.608;2023-06-05T18:42:54;26.90;45.00
22416;DHT22;12204;50.600;4.608;2023-06-05T18:47:59;26.90;44.70
22416;DHT22;12204;50.600;4.608;2023-06-05T18:53:02;26.90;45.60
22416;DHT22;12204;50.600;4.608;2023-06-05T18:58:06;26.80;45.50
22416;DHT22;12204;50.600;4.608;2023-06-05T19:03:11;26.80;46.10
22416;DHT22;12204;50.600;4.608;2023-06-05T19:08:14;26.80;46.50
22416;DHT22;12204;50.600;4.608;2023-06-05T19:13:18;26.80;46.90
22416;DHT22;12204;50.600;4.608;2023-06-05T19:18:23;26.80;47.10
22416;DHT22;12204;50.600;4.608;2023-06-05T19:23:26;26.80;47.30
22416;DHT22;12204;50.600;4.608;2023-06-05T19:28:30;26.80;47.70
22416;DHT22;12204;50.600;4.608;2023-06-05T19:33:35;26.70;47.80
22416;DHT22;12204;50.600;4.608;2023-06-05T19:38:39;26.70;48.20
22416;DHT22;12204;50.600;4.608;2023-06-05T19:50:43;26.60;49.00
22416;DHT22;12204;50.600;4.608;2023-06-05T20:19:28;26.30;49.20
22416;DHT22;12204;50.600;4.608;2023-06-05T20:24:32;26.30;49.20
22416;DHT22;12204;50.600;4.608;2023-06-05T20:30:05;26.30;49.50
22416;DHT22;12204;50.600;4.608;2023-06-05T20:35:33;26.20;49.50
22416;DHT22;12204;50.600;4.608;2023-06-05T20:41:13;26.20;49.60
22416;DHT22;12204;50.600;4.608;2023-06-05T20:53:35;26.10;49.80
22416;DHT22;12204;50.600;4.608;2023-06-05T20:59:14;26.10;49.90
22416;DHT22;12204;50.600;4.608;2023-06-05T21:05:57;26.20;50.50
22416;DHT22;12204;50.600;4.608;2023-06-05T21:24:15;26.30;51.30
22416;DHT22;12204;50.600;4.608;2023-06-05T21:29:19;26.30;51.60
22416;DHT22;12204;50.600;4.608;2023-06-05T21:34:24;26.30;52.10
22416;DHT22;12204;50.600;4.608;2023-06-05T21:39:30;26.30;52.30
22416;DHT22;12204;50.600;4.608;2023-06-05T21:44:34;26.30;52.60
22416;DHT22;12204;50.600;4.608;2023-06-05T21:49:38;26.30;52.40
22416;DHT22;12204;50.600;4.608;2023-06-05T21:54:44;26.30;52.30
22416;DHT22;12204;50.600;4.608;2023-06-05T21:59:47;26.30;52.40
22416;DHT22;12204;50.600;4.608;2023-06-05T22:04:51;26.30;52.50
22416;DHT22;12204;50.600;4.608;2023-06-05T22:09:56;26.40;52.70
22416;DHT22;12204;50.600;4.608;2023-06-05T22:15:01;26.40;52.50
22416;DHT22;12204;50.600;4.608;2023-06-05T22:20:06;26.30;52.60
22416;DHT22;12204;50.600;4.608;2023-06-05T22:25:12;26.30;52.50
22416;DHT22;12204;50.600;4.608;2023-06-05T22:30:16;26.40;52.60
22416;DHT22;12204;50.600;4.608;2023-06-05T22:35:20;26.40;52.70
22416;DHT22;12204;50.600;4.608;2023-06-05T22:40:27;26.40;52.60
22416;DHT22;12204;50.600;4.608;2023-06-05T22:45:32;26.40;52.90
22416;DHT22;12204;50.600;4.608;2023-06-05T22:50:35;26.40;52.90
22416;DHT22;12204;50.600;4.608;2023-06-05T22:55:41;26.40;53.40
22416;DHT22;12204;50.600;4.608;2023-06-05T23:00:46;26.40;53.00
22416;DHT22;12204;50.600;4.608;2023-06-05T23:05:54;26.40;52.90
22416;DHT22;12204;50.600;4.608;2023-06-05T23:10:59;26.40;53.00
22416;DHT22;12204;50.600;4.608;2023-06-05T23:16:03;26.40;53.10
22416;DHT22;12204;50.600;4.608;2023-06-05T23:21:07;26.40;53.10
22416;DHT22;12204;50.600;4.608;2023-06-05T23:37:57;26.40;53.40
22416;DHT22;12204;50.600;4.608;2023-06-05T23:43:01;26.40;53.50
22416;DHT22;12204;50.600;4.608;2023-06-05T23:48:05;26.40;53.60
22416;DHT22;12204;50.600;4.608;2023-06-05T23:53:10;26.40;53.60
22416;DHT22;12204;50.600;4.608;2023-06-05T23:58:14;26.40;53.60
